createdAt,value
2018-11-20T00:01:14.947Z,8.80
2018-11-20T00:04:01.690Z,7.47
2018-11-20T00:06:44.607Z,7.90
2018-11-20T00:09:31.329Z,8.07
2018-11-20T00:12:19.505Z,7.93
2018-11-20T00:15:07.364Z,8.00
2018-11-20T00:17:50.263Z,11.00
2018-11-20T00:20:37.441Z,10.70
2018-11-20T00:23:24.125Z,7.63
2018-11-20T00:26:08.800Z,9.63
2018-11-20T00:29:03.277Z,9.20
2018-11-20T00:31:52.680Z,8.83
2018-11-20T00:34:39.721Z,7.50
2018-11-20T00:37:25.875Z,8.97
2018-11-20T00:40:12.667Z,7.73
2018-11-20T00:42:57.688Z,12.13
2018-11-20T00:45:51.940Z,13.33
2018-11-20T00:48:41.544Z,14.20
2018-11-20T00:51:22.960Z,15.53
2018-11-20T00:54:10.071Z,13.40
2018-11-20T00:56:57.215Z,13.33
2018-11-20T00:59:45.953Z,15.83
2018-11-20T01:02:26.915Z,16.07
2018-11-20T01:05:30.039Z,13.63
2018-11-20T01:08:11.332Z,17.03
2018-11-20T01:11:11.283Z,13.40
2018-11-20T01:14:08.367Z,17.37
2018-11-20T01:16:53.767Z,15.23
2018-11-20T01:19:44.740Z,16.90
2018-11-20T01:22:29.319Z,14.73
2018-11-20T01:25:32.807Z,16.50
2018-11-20T01:28:18.173Z,15.03
2018-11-20T01:31:04.922Z,12.97
2018-11-20T01:34:02.018Z,14.00
2018-11-20T01:36:43.847Z,16.97
2018-11-20T01:39:30.884Z,15.30
2018-11-20T01:42:18.050Z,16.60
2018-11-20T01:44:58.539Z,20.33
2018-11-20T01:47:55.704Z,15.50
2018-11-20T01:50:44.087Z,19.33
2018-11-20T01:53:41.475Z,14.33
2018-11-20T01:56:32.700Z,14.60
2018-11-20T01:59:23.004Z,18.67
2018-11-20T02:02:10.166Z,19.27
2018-11-20T02:05:13.363Z,16.60
2018-11-20T02:08:07.652Z,13.33
2018-11-20T02:11:04.957Z,19.37
2018-11-20T02:14:11.094Z,19.03
2018-11-20T02:17:05.771Z,16.53
2018-11-20T02:20:12.195Z,19.53
2018-11-20T02:23:06.386Z,20.23
2018-11-20T02:26:00.638Z,21.57
2018-11-20T02:28:47.804Z,17.93
2018-11-20T02:31:31.396Z,24.50
2018-11-20T02:34:26.289Z,20.77
2018-11-20T02:37:12.288Z,19.07
2018-11-20T02:40:06.556Z,18.40
2018-11-20T02:42:44.206Z,19.30
2018-11-20T02:45:44.451Z,21.40
2018-11-20T02:48:28.413Z,18.47
2018-11-20T02:51:19.721Z,21.30
2018-11-20T02:54:06.562Z,17.97
2018-11-20T02:56:53.695Z,22.03
2018-11-20T02:59:40.586Z,22.07
2018-11-20T03:02:46.787Z,18.60
2018-11-20T03:05:36.431Z,23.53
2018-11-20T03:08:24.758Z,22.90
2018-11-20T03:11:31.626Z,14.40
2018-11-20T03:14:38.208Z,21.80
2018-11-20T03:17:25.054Z,20.53
2018-11-20T03:20:04.235Z,21.03
2018-11-20T03:22:52.838Z,22.07
2018-11-20T03:25:59.364Z,20.20
2018-11-20T03:28:49.601Z,15.23
2018-11-20T03:31:37.481Z,21.13
2018-11-20T03:34:24.320Z,23.30
2018-11-20T03:37:15.215Z,21.60
2018-11-20T03:39:59.145Z,17.83
2018-11-20T03:42:50.217Z,21.50
2018-11-20T03:45:38.514Z,19.73
2018-11-20T03:48:34.263Z,21.03
2018-11-20T03:51:21.036Z,16.90
2018-11-20T03:54:18.169Z,14.07
2018-11-20T03:56:59.409Z,16.43
2018-11-20T03:59:53.590Z,19.93
2018-11-20T04:02:57.072Z,20.40
2018-11-20T04:05:42.524Z,16.73
2018-11-20T04:08:29.554Z,16.43
2018-11-20T04:11:16.708Z,18.23
2018-11-20T04:14:10.941Z,15.90
2018-11-20T04:16:52.340Z,18.23
2018-11-20T04:19:39.228Z,13.73
2018-11-20T04:22:26.339Z,12.00
2018-11-20T04:25:30.167Z,9.07
2018-11-20T04:28:21.603Z,14.53
2018-11-20T04:31:34.349Z,15.53
2018-11-20T04:34:29.458Z,15.93
2018-11-20T04:37:30.072Z,18.00
2018-11-20T04:40:18.426Z,15.03
2018-11-20T04:43:16.634Z,16.13
2018-11-20T04:46:04.803Z,13.57
2018-11-20T04:48:53.114Z,15.70
2018-11-20T04:51:47.357Z,15.23
2018-11-20T04:54:44.764Z,15.10
2018-11-20T04:57:32.009Z,17.80
2018-11-20T05:00:17.298Z,15.53
2018-11-20T05:03:14.022Z,14.37
2018-11-20T05:06:00.774Z,14.27
2018-11-20T05:08:40.431Z,15.70
2018-11-20T05:11:35.852Z,17.70
2018-11-20T05:14:23.238Z,14.17
2018-11-20T05:17:10.118Z,16.23
2018-11-20T05:20:09.080Z,14.17
2018-11-20T05:23:02.451Z,19.07
2018-11-20T05:26:05.831Z,16.60
2018-11-20T05:28:52.630Z,14.73
2018-11-20T05:31:39.915Z,17.23
2018-11-20T05:34:30.765Z,15.53
2018-11-20T05:37:25.216Z,15.00
2018-11-20T05:40:12.497Z,14.60
2018-11-20T05:43:18.979Z,14.47
2018-11-20T05:46:19.508Z,13.03
2018-11-20T05:49:16.448Z,16.80
2018-11-20T05:52:03.091Z,18.00
2018-11-20T05:54:44.749Z,15.50
2018-11-20T05:57:45.366Z,17.23
2018-11-20T06:00:32.659Z,19.63
2018-11-20T06:03:19.893Z,16.83
2018-11-20T06:06:10.895Z,17.90
2018-11-20T06:08:57.633Z,15.37
2018-11-20T06:11:48.402Z,17.77
2018-11-20T06:14:39.781Z,17.87
2018-11-20T06:17:26.641Z,13.93
2018-11-20T06:20:03.158Z,17.40
2018-11-20T06:23:06.507Z,16.63
2018-11-20T06:25:40.570Z,20.90
2018-11-20T06:28:34.988Z,16.30
2018-11-20T06:31:30.057Z,17.30
2018-11-20T06:34:55.222Z,17.97
2018-11-20T06:37:41.270Z,19.97
2018-11-20T06:40:22.383Z,16.80
2018-11-20T06:43:21.900Z,19.20
2018-11-20T06:46:15.512Z,14.43
2018-11-20T06:49:09.054Z,18.90
2018-11-20T06:51:59.516Z,16.20
2018-11-20T06:54:45.585Z,19.33
2018-11-20T06:57:42.330Z,19.30
2018-11-20T07:00:29.909Z,18.60
2018-11-20T07:03:32.469Z,19.03
2018-11-20T07:06:25.931Z,20.63
2018-11-20T07:09:11.993Z,20.87
2018-11-20T07:12:11.291Z,16.27
2018-11-20T07:14:53.694Z,18.60
2018-11-20T07:18:01.303Z,17.63
2018-11-20T07:20:40.012Z,18.70
2018-11-20T07:23:30.508Z,17.90
2018-11-20T07:26:16.550Z,20.23
2018-11-20T07:28:56.120Z,16.77
2018-11-20T07:31:42.825Z,18.13
2018-11-20T07:34:26.279Z,18.53
2018-11-20T07:37:22.412Z,18.87
2018-11-20T07:40:09.624Z,16.47
2018-11-20T07:42:56.644Z,18.60
2018-11-20T07:45:42.532Z,22.87
2018-11-20T07:48:25.654Z,19.83
2018-11-20T07:51:11.956Z,15.70
2018-11-20T07:53:56.389Z,22.83
2018-11-20T07:56:53.968Z,22.47
2018-11-20T07:59:40.481Z,19.27
2018-11-20T08:02:27.242Z,16.53
2018-11-20T08:05:08.855Z,18.70
2018-11-20T08:07:56.338Z,17.20
2018-11-20T08:10:43.999Z,17.37
2018-11-20T08:13:39.735Z,18.50
2018-11-20T08:16:27.286Z,19.20
2018-11-20T08:19:30.090Z,20.27
2018-11-20T08:22:27.723Z,15.07
2018-11-20T08:25:30.308Z,18.87
2018-11-20T08:28:23.502Z,17.80
2018-11-20T08:31:09.124Z,20.00
2018-11-20T08:33:59.745Z,13.63
2018-11-20T08:37:05.826Z,18.43
2018-11-20T08:39:59.236Z,16.57
2018-11-20T08:42:58.672Z,15.80
2018-11-20T08:45:44.594Z,18.53
2018-11-20T08:48:32.187Z,17.90
2018-11-20T08:51:28.528Z,21.60
2018-11-20T08:54:14.701Z,15.43
2018-11-20T08:57:04.947Z,13.87
2018-11-20T08:59:51.177Z,15.87
2018-11-20T09:02:37.586Z,18.53
2018-11-20T09:05:24.317Z,20.77
2018-11-20T09:08:23.769Z,21.63
2018-11-20T09:11:10.871Z,18.80
2018-11-20T09:13:50.472Z,20.63
2018-11-20T09:16:37.401Z,18.83
2018-11-20T09:19:25.083Z,18.70
2018-11-20T09:22:11.247Z,20.93
2018-11-20T09:24:57.618Z,21.03
2018-11-20T09:28:03.190Z,19.10
2018-11-20T09:30:42.000Z,22.60
2018-11-20T09:33:29.550Z,20.97
2018-11-20T09:36:24.199Z,20.57
2018-11-20T09:39:20.660Z,17.33
2018-11-20T09:42:08.191Z,19.80
2018-11-20T09:45:07.619Z,20.67
2018-11-20T09:47:55.321Z,19.03
2018-11-20T09:50:53.115Z,16.33
2018-11-20T09:53:39.252Z,20.07
2018-11-20T09:56:25.609Z,20.20
2018-11-20T09:59:11.782Z,19.47
2018-11-20T10:01:55.052Z,16.37
2018-11-20T10:04:42.641Z,24.37
2018-11-20T10:07:39.722Z,20.40
2018-11-20T10:10:27.817Z,16.40
2018-11-20T10:13:13.934Z,20.73
2018-11-20T10:16:01.553Z,20.80
2018-11-20T10:18:51.743Z,21.43
2018-11-20T10:21:45.168Z,16.50
2018-11-20T10:24:30.691Z,24.70
2018-11-20T10:27:18.119Z,20.60
2018-11-20T10:30:04.578Z,19.37
2018-11-20T10:32:54.773Z,20.53
2018-11-20T10:35:48.134Z,21.07
2018-11-20T10:38:32.548Z,23.27
2018-11-20T10:41:19.043Z,22.73
2018-11-20T10:44:03.196Z,20.40
2018-11-20T10:46:57.235Z,19.90
2018-11-20T10:49:43.237Z,17.57
2018-11-20T10:52:27.406Z,22.50
2018-11-20T10:55:24.061Z,20.50
2018-11-20T10:58:01.866Z,19.47
2018-11-20T11:00:48.029Z,15.90
2018-11-20T11:03:26.785Z,18.50
2018-11-20T11:06:12.850Z,21.97
2018-11-20T11:08:46.542Z,16.87
2018-11-20T11:11:40.183Z,21.63
2018-11-20T11:14:26.387Z,18.30
2018-11-20T11:17:19.756Z,23.43
2018-11-20T11:20:16.286Z,18.30
2018-11-20T11:23:12.396Z,20.17
2018-11-20T11:26:04.045Z,18.83
2018-11-20T11:28:42.588Z,17.77
2018-11-20T11:31:28.919Z,18.70
2018-11-20T11:34:31.328Z,17.77
2018-11-20T11:37:17.566Z,19.27
2018-11-20T11:39:58.870Z,19.40
2018-11-20T11:42:44.952Z,18.60
2018-11-20T11:45:47.410Z,17.33
2018-11-20T11:48:33.501Z,17.77
2018-11-20T11:51:25.562Z,23.83
2018-11-20T11:54:10.386Z,20.67
2018-11-20T11:56:57.917Z,19.97
2018-11-20T11:59:44.187Z,21.57
2018-11-20T12:05:24.629Z,20.63
2018-11-20T12:08:14.355Z,16.77
2018-11-20T12:11:00.390Z,19.47
2018-11-20T12:13:47.275Z,17.57
2018-11-20T12:16:43.832Z,22.97
2018-11-20T12:19:37.376Z,18.33
2018-11-20T12:22:34.088Z,19.30
2018-11-20T12:25:36.788Z,22.23
2018-11-20T12:28:30.266Z,18.00
2018-11-20T12:31:36.074Z,19.73
2018-11-20T12:34:22.197Z,21.87
2018-11-20T12:37:15.489Z,19.90
2018-11-20T12:40:02.539Z,22.13
2018-11-20T12:42:52.694Z,18.10
2018-11-20T12:45:51.833Z,21.50
2018-11-20T12:48:58.470Z,21.70
2018-11-20T12:52:05.918Z,25.57
2018-11-20T12:55:03.004Z,20.63
2018-11-20T12:57:56.523Z,20.07
2018-11-20T13:00:42.840Z,26.67
2018-11-20T13:03:28.759Z,23.30
2018-11-20T13:06:18.325Z,20.40
2018-11-20T13:09:20.990Z,25.70
2018-11-20T13:12:07.025Z,23.37
2018-11-20T13:14:54.550Z,23.80
2018-11-20T13:17:40.859Z,21.07
2018-11-20T13:20:46.404Z,23.40
2018-11-20T13:23:52.397Z,22.53
2018-11-20T13:26:39.883Z,24.60
2018-11-20T13:29:33.512Z,28.17
2018-11-20T13:32:23.808Z,26.00
2018-11-20T13:35:09.625Z,24.63
2018-11-20T13:38:02.985Z,23.03
2018-11-20T13:41:29.479Z,23.47
2018-11-20T13:44:11.893Z,22.63
2018-11-20T13:47:04.424Z,22.53
2018-11-20T13:49:52.014Z,24.30
2018-11-20T13:52:31.202Z,25.97
2018-11-20T13:55:21.874Z,25.43
2018-11-20T13:58:26.348Z,21.87
2018-11-20T14:01:26.096Z,25.20
2018-11-20T14:04:13.708Z,25.40
2018-11-20T14:07:19.392Z,27.20
2018-11-20T14:10:06.560Z,27.03
2018-11-20T14:12:52.594Z,27.83
2018-11-20T14:15:55.366Z,23.57
2018-11-20T14:18:45.678Z,26.00
2018-11-20T14:21:31.743Z,25.60
2018-11-20T14:24:25.013Z,26.23
2018-11-20T14:27:18.341Z,22.60
2018-11-20T14:30:04.594Z,20.70
2018-11-20T14:32:41.763Z,27.83
2018-11-20T14:35:27.969Z,25.27
2018-11-20T14:38:30.577Z,23.80
2018-11-20T14:41:11.703Z,25.30
2018-11-20T14:44:05.127Z,24.43
2018-11-20T14:46:51.681Z,23.17
2018-11-20T14:49:51.174Z,19.17
2018-11-20T14:52:50.461Z,22.10
2018-11-20T14:55:56.201Z,23.10
2018-11-20T14:58:43.720Z,23.30
2018-11-20T15:01:31.312Z,19.90
2018-11-20T15:04:36.805Z,19.97
2018-11-20T15:07:23.032Z,18.57
2018-11-20T15:10:16.076Z,16.73
2018-11-20T15:13:09.798Z,12.47
2018-11-20T15:16:05.578Z,19.30
2018-11-20T15:19:11.042Z,17.43
2018-11-20T15:21:58.562Z,12.80
2018-11-20T15:24:35.962Z,14.77
2018-11-20T15:27:24.473Z,13.17
2018-11-20T15:30:10.439Z,12.00
2018-11-20T15:32:57.906Z,9.77
2018-11-20T15:35:44.136Z,11.60
2018-11-20T15:38:31.689Z,8.87
2018-11-20T15:41:17.732Z,10.30
2018-11-20T15:44:20.278Z,9.47
2018-11-20T15:47:07.993Z,8.97
2018-11-20T15:49:58.573Z,10.43
2018-11-20T15:52:49.839Z,7.63
2018-11-20T15:55:40.043Z,9.20
2018-11-20T15:58:33.878Z,8.23
2018-11-20T16:01:23.269Z,8.67
2018-11-20T16:04:16.625Z,9.70
2018-11-20T16:07:04.072Z,7.63
2018-11-20T16:09:43.960Z,7.53
2018-11-20T16:12:30.216Z,5.77
2018-11-20T16:15:16.318Z,9.23
2018-11-20T16:18:09.671Z,7.27
2018-11-20T16:20:55.882Z,7.27
2018-11-20T16:23:38.897Z,6.63
2018-11-20T16:26:32.251Z,9.47
2018-11-20T16:29:18.438Z,8.47
2018-11-20T16:32:05.931Z,7.10
2018-11-20T16:35:00.742Z,7.80
2018-11-20T16:37:51.316Z,7.67
2018-11-20T16:40:37.659Z,7.80
2018-11-20T16:43:25.230Z,7.03
2018-11-20T16:46:21.319Z,7.30
2018-11-20T16:49:17.910Z,7.10
2018-11-20T16:52:20.804Z,7.37
2018-11-20T16:55:09.115Z,7.37
2018-11-20T16:57:59.775Z,7.87
2018-11-20T17:00:43.140Z,7.77
2018-11-20T17:03:30.731Z,9.37
2018-11-20T17:06:20.784Z,7.93
2018-11-20T17:09:17.275Z,7.37
2018-11-20T17:12:04.376Z,7.23
2018-11-20T17:14:50.263Z,7.50
2018-11-20T17:17:36.515Z,9.50
2018-11-20T17:20:38.506Z,7.90
2018-11-20T17:23:37.704Z,8.10
2018-11-20T17:26:37.477Z,7.17
2018-11-20T17:29:27.959Z,6.93
2018-11-20T17:32:10.597Z,7.63
2018-11-20T17:34:56.531Z,7.90
2018-11-20T17:37:37.501Z,7.77
2018-11-20T17:40:36.242Z,7.57
2018-11-20T17:43:32.816Z,8.10
2018-11-20T17:46:18.768Z,7.97
2018-11-20T17:49:21.253Z,7.23
2018-11-20T17:52:07.305Z,8.80
2018-11-20T17:55:05.980Z,7.93
2018-11-20T17:57:57.039Z,8.33
2018-11-20T18:00:45.172Z,8.40
2018-11-20T18:03:31.198Z,9.53
2018-11-20T18:06:18.799Z,7.57
2018-11-20T18:09:04.876Z,9.33
2018-11-20T18:12:01.566Z,8.97
2018-11-20T18:14:47.876Z,10.43
2018-11-20T18:17:23.370Z,10.47
2018-11-20T18:20:16.870Z,9.60
2018-11-20T18:23:13.359Z,10.00
2018-11-20T18:25:59.354Z,9.47
2018-11-20T18:28:52.613Z,14.20
2018-11-20T18:31:58.569Z,8.40
2018-11-20T18:34:52.171Z,10.47
2018-11-20T18:37:45.452Z,9.10
2018-11-20T18:40:51.459Z,12.13
2018-11-20T18:43:37.438Z,13.23
2018-11-20T18:46:25.116Z,11.77
2018-11-20T18:49:21.583Z,12.17
2018-11-20T18:52:24.195Z,13.97
2018-11-20T18:55:10.737Z,11.40
2018-11-20T18:58:07.111Z,86.87
2018-11-20T19:00:52.984Z,27.03
2018-11-20T19:03:27.930Z,17.07
2018-11-20T19:06:15.481Z,20.27
2018-11-20T19:09:15.450Z,12.77
2018-11-20T19:12:09.122Z,13.77
2018-11-20T19:14:55.328Z,13.13
2018-11-20T19:17:46.107Z,19.77
2018-11-20T19:20:32.184Z,13.83
2018-11-20T19:23:09.954Z,13.47
2018-11-20T19:26:06.744Z,11.00
2018-11-20T19:28:56.949Z,12.80
2018-11-20T19:31:58.954Z,14.43
2018-11-20T19:34:58.704Z,14.27
2018-11-20T19:37:46.980Z,13.83
2018-11-20T19:40:33.591Z,15.67
2018-11-20T19:43:19.615Z,15.03
2018-11-20T19:46:05.697Z,10.80
2018-11-20T19:49:08.087Z,14.03
2018-11-20T19:52:00.799Z,13.50
2018-11-20T19:54:44.379Z,15.30
2018-11-20T19:57:39.609Z,14.53
2018-11-20T20:00:48.622Z,14.83
2018-11-20T20:03:34.925Z,15.70
2018-11-20T20:06:40.820Z,15.10
2018-11-20T20:09:33.092Z,17.23
2018-11-20T20:12:26.613Z,17.97
2018-11-20T20:15:20.072Z,15.57
2018-11-20T20:18:06.368Z,18.30
2018-11-20T20:21:02.661Z,16.07
2018-11-20T20:24:05.300Z,14.77
2018-11-20T20:27:08.122Z,12.67
2018-11-20T20:29:58.563Z,14.30
2018-11-20T20:33:04.248Z,13.10
2018-11-20T20:35:54.405Z,18.27
2018-11-20T20:38:38.508Z,18.40
2018-11-20T20:41:25.985Z,16.63
2018-11-20T20:44:16.387Z,17.40
2018-11-20T20:47:02.378Z,16.83
2018-11-20T20:50:05.021Z,16.70
2018-11-20T20:52:45.272Z,15.60
2018-11-20T20:55:32.841Z,17.77
2018-11-20T20:58:29.584Z,18.57
2018-11-20T21:01:15.544Z,15.43
2018-11-20T21:04:03.334Z,17.87
2018-11-20T21:06:45.034Z,14.23
2018-11-20T21:09:31.178Z,13.90
2018-11-20T21:12:24.655Z,16.93
2018-11-20T21:15:10.558Z,17.80
2018-11-20T21:18:00.731Z,16.43
2018-11-20T21:20:48.291Z,13.27
2018-11-20T21:23:41.517Z,19.90
2018-11-20T21:26:41.286Z,18.63
2018-11-20T21:29:24.704Z,19.63
2018-11-20T21:32:12.290Z,15.73
2018-11-20T21:34:55.122Z,16.60
2018-11-20T21:37:41.074Z,20.03
2018-11-20T21:40:34.313Z,16.83
2018-11-20T21:43:34.094Z,17.07
2018-11-20T21:46:20.207Z,15.83
2018-11-20T21:49:10.385Z,16.47
2018-11-20T21:52:05.426Z,18.63
2018-11-20T21:54:51.771Z,14.93
2018-11-20T21:57:40.978Z,14.33
2018-11-20T22:00:39.320Z,13.47
2018-11-20T22:03:38.715Z,15.57
2018-11-20T22:06:25.164Z,15.60
2018-11-20T22:09:18.513Z,14.87
2018-11-20T22:12:05.958Z,14.03
2018-11-20T22:14:53.552Z,14.97
2018-11-20T22:17:39.570Z,14.40
2018-11-20T22:20:30.451Z,14.00
2018-11-20T22:23:26.506Z,18.60
2018-11-20T22:26:20.146Z,15.87
2018-11-20T22:29:22.629Z,16.27
2018-11-20T22:32:25.388Z,12.33
2018-11-20T22:35:21.825Z,13.13
2018-11-20T22:38:18.334Z,17.43
2018-11-20T22:41:13.591Z,20.87
2018-11-20T22:44:04.072Z,13.00
2018-11-20T22:46:57.226Z,13.13
2018-11-20T22:49:43.595Z,15.33
2018-11-20T22:52:33.947Z,15.77
2018-11-20T22:55:27.714Z,17.67
2018-11-20T22:58:16.801Z,18.07
2018-11-20T23:00:53.855Z,17.23
2018-11-20T23:03:36.787Z,20.07
2018-11-20T23:06:23.148Z,16.93
2018-11-20T23:08:51.597Z,15.97
2018-11-20T23:11:20.118Z,16.87
2018-11-20T23:13:48.581Z,19.20
2018-11-20T23:16:17.095Z,15.03
2018-11-20T23:18:45.533Z,16.47
2018-11-20T23:21:14.048Z,18.67
2018-11-20T23:23:42.527Z,17.63
2018-11-20T23:26:11.012Z,16.00
2018-11-20T23:28:39.529Z,13.73
2018-11-20T23:31:07.981Z,14.57
2018-11-20T23:33:36.450Z,16.60
2018-11-20T23:36:05.031Z,17.13
2018-11-20T23:38:33.601Z,15.17
2018-11-20T23:41:02.050Z,15.47
2018-11-20T23:43:30.505Z,16.03
2018-11-20T23:45:58.995Z,17.37
2018-11-20T23:48:27.374Z,14.10
2018-11-20T23:50:55.856Z,15.10
2018-11-20T23:53:24.463Z,16.40
2018-11-20T23:55:52.879Z,14.47
2018-11-20T23:58:21.379Z,16.50
